Time;durP1;ratioP1;P1;durP2;ratioP2;P2;SDS_P1;SDS_P2;PMS_P1;PMS_P2;Temp;Humidity;BMP_temperature;BMP_pressure;BME280_temperature;BME280_humidity;BME280_pressure;Samples;Min_cycle;Max_cycle;Signal;HPM_P1;HPM_P2
2022/11/21 00:01:15;;;;;;;;;;;;;;;;;;5029429;28;1981;-58
2022/11/21 00:03:40;;;;;;;;;;;;;;;;;;5029392;28;4934;-59
2022/11/21 00:06:05;;;;;;;;;;;;;;;;;;5028227;28;5072;-59
2022/11/21 00:08:31;;;;;;;;;;;;;;;;;;5026101;28;4725;-59
2022/11/21 00:10:59;;;;;;;;;;;;;;;;;;5023696;28;4565;-59
2022/11/21 00:13:25;;;;;;;;;;;;;;;;;;5027637;28;5210;-59
2022/11/21 00:15:50;;;;;;;;;;;;;;;;;;5027969;28;4771;-57
2022/11/21 00:18:15;;;;;;;;;;;;;;;;;;5022262;28;4389;-58
2022/11/21 00:20:42;;;;;;;;;;;;;;;;;;5008004;28;5138;-58
2022/11/21 00:23:07;;;;;;;;;;;;;;;;;;5006936;28;4689;-59
2022/11/21 00:25:32;;;;;;;;;;;;;;;;;;5008885;28;5984;-59
2022/11/21 00:27:58;;;;;;;;;;;;;;;;;;5020376;28;2182;-58
2022/11/21 00:30:23;;;;;;;;;;;;;;;;;;5026674;28;5069;-57
2022/11/21 00:32:48;;;;;;;;;;;;;;;;;;5028542;28;5092;-59
2022/11/21 00:35:13;;;;;;;;;;;;;;;;;;5026211;28;5014;-59
2022/11/21 00:37:39;;;;;;;;;;;;;;;;;;5009549;28;4502;-59
2022/11/21 00:40:04;;;;;;;;;;;;;;;;;;5009763;28;1938;-59
2022/11/21 00:42:29;;;;;;;;;;;;;;;;;;5023925;28;4626;-59
2022/11/21 00:44:55;;;;;;;;;;;;;;;;;;5029210;28;4938;-59
2022/11/21 00:47:20;;;;;;;;;;;;;;;;;;5027318;28;5120;-59
2022/11/21 00:49:45;;;;;;;;;;;;;;;;;;5027374;28;4476;-59
2022/11/21 00:52:10;;;;;;;;;;;;;;;;;;5027282;28;1723;-58
2022/11/21 00:54:36;;;;;;;;;;;;;;;;;;5027071;28;4768;-59
2022/11/21 00:57:01;;;;;;;;;;;;;;;;;;5029005;28;4599;-57
2022/11/21 00:59:26;;;;;;;;;;;;;;;;;;5028866;28;5528;-58
2022/11/21 01:01:51;;;;;;;;;;;;;;;;;;5027194;28;5338;-59
2022/11/21 01:04:17;;;;;;;;;;;;;;;;;;5028910;28;4950;-58
2022/11/21 01:06:42;;;;;;;;;;;;;;;;;;5028703;28;1154;-58
2022/11/21 01:09:07;;;;;;;;;;;;;;;;;;5041709;28;5016;-59
2022/11/21 01:11:32;;;;;;;;;;;;;;;;;;5024873;28;4574;-58
2022/11/21 01:13:58;;;;;;;;;;;;;;;;;;5027303;28;4977;-59
2022/11/21 01:16:24;;;;;;;;;;;;;;;;;;5028339;28;5041;-59
2022/11/21 01:18:49;;;;;;;;;;;;;;;;;;5044229;28;924;-59
2022/11/21 01:21:18;;;;;;;;;;;;;;;;;;5022054;28;5026;-59
2022/11/21 01:23:44;;;;;;;;;;;;;;;;;;5016974;28;5038;-59
2022/11/21 01:26:13;;;;;;;;;;;;;;;;;;5026816;28;5020;-59
2022/11/21 01:28:38;;;;;;;;;;;;;;;;;;5028295;28;4816;-58
2022/11/21 01:31:10;;;;;;;;;;;;;;;;;;5028534;28;947;-59
2022/11/21 01:33:35;;;;;;;;;;;;;;;;;;5026629;28;4491;-59
2022/11/21 01:36:05;;;;;;;;;;;;;;;;;;5026021;28;4502;-58
2022/11/21 01:38:31;;;;;;;;;;;;;;;;;;5028391;28;5158;-58
2022/11/21 01:40:56;;;;;;;;;;;;;;;;;;5026771;28;5247;-59
2022/11/21 01:43:22;;;;;;;;;;;;;;;;;;5026400;28;5187;-56
2022/11/21 01:45:47;;;;;;;;;;;;;;;;;;5024732;28;2100;-59
2022/11/21 01:48:12;;;;;;;;;;;;;;;;;;5027979;28;5025;-59
2022/11/21 01:50:37;;;;;;;;;;;;;;;;;;5042987;28;5007;-57
2022/11/21 01:53:03;;;;;;;;;;;;;;;;;;5023902;28;5015;-59
2022/11/21 01:55:28;;;;;;;;;;;;;;;;;;5036758;28;4606;-59
2022/11/21 01:57:53;;;;;;;;;;;;;;;;;;5028224;28;920;-58
2022/11/21 02:00:20;;;;;;;;;;;;;;;;;;5027911;28;5258;-58
2022/11/21 02:02:47;;;;;;;;;;;;;;;;;;5027934;28;4998;-58
2022/11/21 02:05:14;;;;;;;;;;;;;;;;;;5027764;28;5469;-60
2022/11/21 02:07:39;;;;;;;;;;;;;;;;;;5031500;28;5173;-59
2022/11/21 02:10:05;;;;;;;;;;;;;;;;;;5030292;28;1179;-59
2022/11/21 02:12:31;;;;;;;;;;;;;;;;;;5046773;28;5426;-58
2022/11/21 02:14:56;;;;;;;;;;;;;;;;;;5045279;28;4398;-59
2022/11/21 02:17:22;;;;;;;;;;;;;;;;;;5022558;28;5083;-59
2022/11/21 02:19:54;;;;;;;;;;;;;;;;;;5015284;28;5065;-58
2022/11/21 02:22:28;;;;;;;;;;;;;;;;;;5022851;28;5039;-59
2022/11/21 02:25:06;;;;;;;;;;;;;;;;;;5029395;28;1732;-57
2022/11/21 02:27:31;;;;;;;;;;;;;;;;;;5011852;28;5112;-59
2022/11/21 02:29:56;;;;;;;;;;;;;;;;;;5026685;28;4684;-58
2022/11/21 02:32:22;;;;;;;;;;;;;;;;;;5026180;28;4440;-59
2022/11/21 02:34:47;;;;;;;;;;;;;;;;;;5029445;28;5150;-58
2022/11/21 02:37:13;;;;;;;;;;;;;;;;;;5014283;28;1563;-59
2022/11/21 02:39:38;;;;;;;;;;;;;;;;;;5011723;28;4410;-59
2022/11/21 02:42:17;;;;;;;;;;;;;;;;;;5026543;28;4878;-58
2022/11/21 02:44:48;;;;;;;;;;;;;;;;;;5025724;28;4771;-59
2022/11/21 02:47:13;;;;;;;;;;;;;;;;;;5029766;28;5129;-59
2022/11/21 02:49:59;;;;;;;;;;;;;;;;;;5031253;28;4787;-58
2022/11/21 02:52:24;;;;;;;;;;;;;;;;;;5015963;28;4980;-58
2022/11/21 02:54:49;;;;;;;;;;;;;;;;;;5024617;28;2115;-59
2022/11/21 02:57:14;;;;;;;;;;;;;;;;;;5030490;28;4995;-58
2022/11/21 02:59:40;;;;;;;;;;;;;;;;;;5031075;28;4935;-59
2022/11/21 03:02:05;;;;;;;;;;;;;;;;;;5030945;28;5038;-59
2022/11/21 03:04:30;;;;;;;;;;;;;;;;;;5029690;28;5041;-58
2022/11/21 03:06:55;;;;;;;;;;;;;;;;;;5031279;28;1671;-58
2022/11/21 03:09:21;;;;;;;;;;;;;;;;;;5029242;28;4985;-58
2022/11/21 03:11:46;;;;;;;;;;;;;;;;;;5030875;28;4581;-58
2022/11/21 03:14:11;;;;;;;;;;;;;;;;;;5029134;28;5110;-59
2022/11/21 03:16:36;;;;;;;;;;;;;;;;;;5030156;28;5132;-58
2022/11/21 03:19:02;;;;;;;;;;;;;;;;;;5031499;28;1425;-58
2022/11/21 03:21:27;;;;;;;;;;;;;;;;;;5024276;28;4820;-59
2022/11/21 03:23:52;;;;;;;;;;;;;;;;;;5017419;28;4903;-58
2022/11/21 03:26:17;;;;;;;;;;;;;;;;;;5030585;28;5030;-58
2022/11/21 03:28:43;;;;;;;;;;;;;;;;;;5030661;28;4971;-58
2022/11/21 03:31:08;;;;;;;;;;;;;;;;;;5030726;28;1081;-59
2022/11/21 03:33:33;;;;;;;;;;;;;;;;;;5026665;28;4419;-58
2022/11/21 03:35:58;;;;;;;;;;;;;;;;;;5030267;28;4420;-59
2022/11/21 03:38:24;;;;;;;;;;;;;;;;;;5030153;28;5052;-59
2022/11/21 03:40:49;;;;;;;;;;;;;;;;;;5029802;28;5053;-59
2022/11/21 03:43:14;;;;;;;;;;;;;;;;;;5029481;28;2022;-59
2022/11/21 03:45:39;;;;;;;;;;;;;;;;;;5029889;28;4801;-59
2022/11/21 03:48:05;;;;;;;;;;;;;;;;;;5029973;28;4644;-58
2022/11/21 03:50:30;;;;;;;;;;;;;;;;;;5029778;28;5859;-59
2022/11/21 03:52:55;;;;;;;;;;;;;;;;;;5017443;28;5094;-59
2022/11/21 03:55:21;;;;;;;;;;;;;;;;;;5029772;28;5093;-58
2022/11/21 03:57:46;;;;;;;;;;;;;;;;;;5030011;28;1258;-59
2022/11/21 04:00:12;;;;;;;;;;;;;;;;;;5029402;28;4414;-59
2022/11/21 04:02:37;;;;;;;;;;;;;;;;;;5028713;28;4969;-59
2022/11/21 04:05:02;;;;;;;;;;;;;;;;;;5028827;28;4612;-55
2022/11/21 04:07:28;;;;;;;;;;;;;;;;;;5029732;28;4502;-59
2022/11/21 04:09:54;;;;;;;;;;;;;;;;;;5016072;28;1419;-58
2022/11/21 04:12:19;;;;;;;;;;;;;;;;;;5013036;28;4924;-58
2022/11/21 04:14:44;;;;;;;;;;;;;;;;;;5012360;28;5164;-59
2022/11/21 04:17:09;;;;;;;;;;;;;;;;;;5010661;28;5040;-59
2022/11/21 04:19:35;;;;;;;;;;;;;;;;;;5029111;28;4436;-59
2022/11/21 04:22:00;;;;;;;;;;;;;;;;;;5018825;28;1910;-58
2022/11/21 04:24:25;;;;;;;;;;;;;;;;;;5027705;28;5033;-60
2022/11/21 04:26:50;;;;;;;;;;;;;;;;;;5028419;28;5279;-59
2022/11/21 04:29:16;;;;;;;;;;;;;;;;;;5033660;28;4688;-58
2022/11/21 04:31:41;;;;;;;;;;;;;;;;;;5027175;28;4666;-59
2022/11/21 04:34:06;;;;;;;;;;;;;;;;;;5029785;28;927;-57
2022/11/21 04:36:31;;;;;;;;;;;;;;;;;;5029177;28;5036;-59
2022/11/21 04:38:56;;;;;;;;;;;;;;;;;;5028932;28;4428;-59
2022/11/21 04:41:22;;;;;;;;;;;;;;;;;;5027630;28;5074;-59
2022/11/21 04:43:47;;;;;;;;;;;;;;;;;;5029062;28;5016;-59
2022/11/21 04:46:12;;;;;;;;;;;;;;;;;;5029317;28;904;-58
2022/11/21 04:48:37;;;;;;;;;;;;;;;;;;5028714;28;4599;-59
2022/11/21 04:51:03;;;;;;;;;;;;;;;;;;5041179;28;5055;-59
2022/11/21 04:53:28;;;;;;;;;;;;;;;;;;5028411;28;4915;-59
2022/11/21 04:55:53;;;;;;;;;;;;;;;;;;5028472;28;4417;-59
2022/11/21 04:58:19;;;;;;;;;;;;;;;;;;5028382;28;4935;-59
2022/11/21 05:00:44;;;;;;;;;;;;;;;;;;5029433;28;1898;-59
2022/11/21 05:03:09;;;;;;;;;;;;;;;;;;5026188;28;5433;-59
2022/11/21 05:05:35;;;;;;;;;;;;;;;;;;5027087;28;5159;-59
2022/11/21 05:08:00;;;;;;;;;;;;;;;;;;5028298;28;4451;-56
2022/11/21 05:10:25;;;;;;;;;;;;;;;;;;5026063;28;5484;-59
2022/11/21 05:15:41;;;;;;;;;;;;;;;;;;5028148;28;5048;-59
2022/11/21 05:18:06;;;;;;;;;;;;;;;;;;5026729;28;4860;-58
2022/11/21 05:20:31;;;;;;;;;;;;;;;;;;5028362;28;5088;-59
2022/11/21 05:22:57;;;;;;;;;;;;;;;;;;5010542;28;5302;-59
2022/11/21 05:25:22;;;;;;;;;;;;;;;;;;5026124;28;5400;-58
2022/11/21 05:27:47;;;;;;;;;;;;;;;;;;5029004;28;1118;-59
2022/11/21 05:30:12;;;;;;;;;;;;;;;;;;5025584;28;4435;-58
2022/11/21 05:32:38;;;;;;;;;;;;;;;;;;5026107;28;4875;-59
2022/11/21 05:35:03;;;;;;;;;;;;;;;;;;5028311;28;5110;-59
2022/11/21 05:37:28;;;;;;;;;;;;;;;;;;5028262;28;4973;-58
2022/11/21 05:39:54;;;;;;;;;;;;;;;;;;5029512;28;2509;-57
2022/11/21 05:43:44;;;;;;;;;;;;;;;;;;5031389;28;5092;-60
2022/11/21 05:45:04;;;;;;;;;;;;;;;;;;5031668;28;5859;-58
2022/11/21 05:47:29;;;;;;;;;;;;;;;;;;5031524;28;5042;-59
2022/11/21 05:49:55;;;;;;;;;;;;;;;;;;5030523;28;5055;-58
2022/11/21 05:52:20;;;;;;;;;;;;;;;;;;5018380;28;5129;-59
2022/11/21 05:54:45;;;;;;;;;;;;;;;;;;5012016;28;990;-58
2022/11/21 05:57:10;;;;;;;;;;;;;;;;;;5011870;28;4930;-59
2022/11/21 05:59:36;;;;;;;;;;;;;;;;;;5011346;28;5592;-59
2022/11/21 06:04:45;;;;;;;;;;;;;;;;;;5029763;28;5377;-59
2022/11/21 06:07:10;;;;;;;;;;;;;;;;;;5030299;28;2362;-59
2022/11/21 06:09:35;;;;;;;;;;;;;;;;;;5029179;28;4990;-59
2022/11/21 06:12:00;;;;;;;;;;;;;;;;;;5031250;28;5073;-59
2022/11/21 06:14:26;;;;;;;;;;;;;;;;;;5030967;28;5145;-59
2022/11/21 06:16:51;;;;;;;;;;;;;;;;;;5029837;28;4589;-59
2022/11/21 06:19:16;;;;;;;;;;;;;;;;;;5031317;28;1448;-59
2022/11/21 06:21:41;;;;;;;;;;;;;;;;;;5023722;28;5020;-59
2022/11/21 06:24:07;;;;;;;;;;;;;;;;;;5011428;28;5037;-59
2022/11/21 06:26:32;;;;;;;;;;;;;;;;;;5020896;28;4722;-57
2022/11/21 06:28:57;;;;;;;;;;;;;;;;;;5029561;28;4466;-59
2022/11/21 06:31:23;;;;;;;;;;;;;;;;;;5018550;28;5113;-59
2022/11/21 06:33:52;;;;;;;;;;;;;;;;;;5029087;28;2694;-58
2022/11/21 06:36:17;;;;;;;;;;;;;;;;;;5015006;28;4947;-59
2022/11/21 06:38:43;;;;;;;;;;;;;;;;;;5017739;28;5069;-58
2022/11/21 06:41:11;;;;;;;;;;;;;;;;;;5009724;28;4701;-59
2022/11/21 06:43:37;;;;;;;;;;;;;;;;;;5012973;28;4612;-60
2022/11/21 06:46:03;;;;;;;;;;;;;;;;;;5021940;28;2541;-59
2022/11/21 06:48:28;;;;;;;;;;;;;;;;;;5018594;28;5407;-59
2022/11/21 06:50:54;;;;;;;;;;;;;;;;;;5014015;28;5041;-58
2022/11/21 06:53:19;;;;;;;;;;;;;;;;;;5022159;28;5031;-57
2022/11/21 06:55:44;;;;;;;;;;;;;;;;;;5020871;28;4514;-58
2022/11/21 06:58:10;;;;;;;;;;;;;;;;;;5016611;28;2211;-62
2022/11/21 07:00:35;;;;;;;;;;;;;;;;;;5029368;28;5073;-61
2022/11/21 07:03:01;;;;;;;;;;;;;;;;;;5019544;28;5629;-62
2022/11/21 07:05:26;;;;;;;;;;;;;;;;;;5011270;28;5111;-62
2022/11/21 07:07:56;;;;;;;;;;;;;;;;;;5026650;28;5039;-63
2022/11/21 07:10:21;;;;;;;;;;;;;;;;;;5026863;28;4930;-63
2022/11/21 07:15:31;;;;;;;;;;;;;;;;;;5017198;28;4676;-63
2022/11/21 07:17:57;;;;;;;;;;;;;;;;;;5024965;28;4692;-65
2022/11/21 07:20:22;;;;;;;;;;;;;;;;;;5013324;28;5213;-62
2022/11/21 07:22:47;;;;;;;;;;;;;;;;;;5013809;28;5126;-61
2022/11/21 07:25:12;;;;;;;;;;;;;;;;;;5017501;28;2344;-62
2022/11/21 07:27:38;;;;;;;;;;;;;;;;;;5012724;28;4422;-61
2022/11/21 07:30:03;;;;;;;;;;;;;;;;;;5026008;28;5063;-61
2022/11/21 07:32:28;;;;;;;;;;;;;;;;;;5028524;28;4417;-61
2022/11/21 07:34:54;;;;;;;;;;;;;;;;;;5028253;28;5162;-61
2022/11/21 07:37:19;;;;;;;;;;;;;;;;;;5029170;28;4980;-61
2022/11/21 07:39:44;;;;;;;;;;;;;;;;;;5009147;28;1842;-64
2022/11/21 07:42:09;;;;;;;;;;;;;;;;;;5009758;28;5205;-63
2022/11/21 07:44:35;;;;;;;;;;;;;;;;;;5008457;28;5134;-61
2022/11/21 07:47:00;;;;;;;;;;;;;;;;;;4987358;28;4585;-61
2022/11/21 07:49:25;;;;;;;;;;;;;;;;;;4993561;28;4556;-64
2022/11/21 07:51:50;;;;;;;;;;;;;;;;;;5005885;28;2334;-63
2022/11/21 07:54:16;;;;;;;;;;;;;;;;;;5004834;28;4932;-63
2022/11/21 07:56:41;;;;;;;;;;;;;;;;;;4996387;28;4527;-59
2022/11/21 07:59:06;;;;;;;;;;;;;;;;;;5009141;28;4538;-63
2022/11/21 08:01:31;;;;;;;;;;;;;;;;;;5000515;28;5315;-66
2022/11/21 08:03:57;;;;;;;;;;;;;;;;;;4996158;28;2320;-65
2022/11/21 08:06:22;;;;;;;;;;;;;;;;;;5004282;28;5079;-62
2022/11/21 08:08:51;;;;;;;;;;;;;;;;;;4988108;28;5057;-72
2022/11/21 08:11:16;;;;;;;;;;;;;;;;;;5000461;28;4532;-63
2022/11/21 08:13:41;;;;;;;;;;;;;;;;;;4999983;28;5070;-64
2022/11/21 08:16:06;;;;;;;;;;;;;;;;;;4996898;28;4490;-61
2022/11/21 08:18:32;;;;;;;;;;;;;;;;;;5001289;28;5099;-63
2022/11/21 08:20:59;;;;;;;;;;;;;;;;;;5005027;28;5053;-61
2022/11/21 08:23:24;;;;;;;;;;;;;;;;;;4998660;28;4498;-61
2022/11/21 08:25:50;;;;;;;;;;;;;;;;;;5005942;28;5183;-62
2022/11/21 08:28:16;;;;;;;;;;;;;;;;;;5000507;28;2548;-62
2022/11/21 08:30:41;;;;;;;;;;;;;;;;;;5029638;28;5275;-63
2022/11/21 08:33:07;;;;;;;;;;;;;;;;;;5028273;28;5043;-63
2022/11/21 08:35:34;;;;;;;;;;;;;;;;;;5024702;28;5073;-61
2022/11/21 08:37:59;;;;;;;;;;;;;;;;;;5027567;28;4606;-62
2022/11/21 08:40:25;;;;;;;;;;;;;;;;;;5015480;28;5122;-63
2022/11/21 08:42:57;;;;;;;;;;;;;;;;;;5022666;28;2668;-63
2022/11/21 08:45:22;;;;;;;;;;;;;;;;;;5011511;28;5053;-62
2022/11/21 08:47:47;;;;;;;;;;;;;;;;;;5018902;28;5162;-62
2022/11/21 08:50:13;;;;;;;;;;;;;;;;;;5009993;28;4906;-62
2022/11/21 08:52:38;;;;;;;;;;;;;;;;;;5013769;28;4511;-66
2022/11/21 08:55:03;;;;;;;;;;;;;;;;;;5018265;28;2372;-64
2022/11/21 08:57:30;;;;;;;;;;;;;;;;;;5025205;28;5513;-64
2022/11/21 08:59:55;;;;;;;;;;;;;;;;;;5024948;28;4716;-61
2022/11/21 09:02:20;;;;;;;;;;;;;;;;;;5009120;28;5139;-61
2022/11/21 09:04:46;;;;;;;;;;;;;;;;;;5017438;28;5141;-60
2022/11/21 09:07:11;;;;;;;;;;;;;;;;;;5019724;28;2340;-61
2022/11/21 09:09:36;;;;;;;;;;;;;;;;;;5003870;28;5054;-61
2022/11/21 09:12:01;;;;;;;;;;;;;;;;;;5016251;28;5616;-63
2022/11/21 09:19:57;;;;;;;;;;;;;;;;;;5021696;28;4621;-63
2022/11/21 09:22:23;;;;;;;;;;;;;;;;;;5011146;28;5123;-63
2022/11/21 09:24:49;;;;;;;;;;;;;;;;;;5014851;28;2313;-62
2022/11/21 09:27:14;;;;;;;;;;;;;;;;;;5022781;28;4435;-61
2022/11/21 09:29:39;;;;;;;;;;;;;;;;;;5027261;28;5592;-62
2022/11/21 09:32:04;;;;;;;;;;;;;;;;;;5027778;28;4940;-61
2022/11/21 09:34:30;;;;;;;;;;;;;;;;;;5022720;28;5219;-61
2022/11/21 09:36:55;;;;;;;;;;;;;;;;;;5014421;28;2203;-60
2022/11/21 09:39:21;;;;;;;;;;;;;;;;;;5019472;28;4933;-62
2022/11/21 09:41:52;;;;;;;;;;;;;;;;;;5018361;28;5315;-63
2022/11/21 09:44:36;;;;;;;;;;;;;;;;;;5018720;28;4507;-61
2022/11/21 09:47:04;;;;;;;;;;;;;;;;;;5010981;28;5047;-62
2022/11/21 09:49:29;;;;;;;;;;;;;;;;;;5035850;28;5487;-61
2022/11/21 09:51:54;;;;;;;;;;;;;;;;;;5017408;28;2341;-63
2022/11/21 09:54:29;;;;;;;;;;;;;;;;;;5011549;28;5267;-62
2022/11/21 09:56:54;;;;;;;;;;;;;;;;;;5037265;28;4548;-62
2022/11/21 09:59:35;;;;;;;;;;;;;;;;;;5031090;28;4850;-61
2022/11/21 10:02:01;;;;;;;;;;;;;;;;;;5042401;28;5315;-63
2022/11/21 10:04:26;;;;;;;;;;;;;;;;;;5021342;28;5116;-63
2022/11/21 10:06:58;;;;;;;;;;;;;;;;;;5024764;28;2369;-64
2022/11/21 10:09:31;;;;;;;;;;;;;;;;;;5023658;28;5185;-62
2022/11/21 10:15:08;;;;;;;;;;;;;;;;;;5027479;28;4405;-62
2022/11/21 10:17:49;;;;;;;;;;;;;;;;;;5021838;28;4959;-61
2022/11/21 10:20:30;;;;;;;;;;;;;;;;;;5036283;28;4942;-61
2022/11/21 10:23:05;;;;;;;;;;;;;;;;;;5012003;28;4678;-64
2022/11/21 10:25:37;;;;;;;;;;;;;;;;;;5017039;28;4929;-63
2022/11/21 10:28:05;;;;;;;;;;;;;;;;;;5021964;28;2595;-59
2022/11/21 10:30:30;;;;;;;;;;;;;;;;;;5028933;28;5187;-62
2022/11/21 10:32:56;;;;;;;;;;;;;;;;;;5020900;28;4839;-60
2022/11/21 10:35:22;;;;;;;;;;;;;;;;;;5024488;28;5138;-58
2022/11/21 10:37:57;;;;;;;;;;;;;;;;;;5020752;28;5028;-61
2022/11/21 10:40:36;;;;;;;;;;;;;;;;;;5028924;28;5325;-62
2022/11/21 10:45:15;;;;;;;;;;;;;;;;;;5016291;28;2318;-61
2022/11/21 10:45:47;;;;;;;;;;;;;;;;;;5030717;28;4497;-60
2022/11/21 10:48:12;;;;;;;;;;;;;;;;;;5030526;28;4653;-61
2022/11/21 10:50:40;;;;;;;;;;;;;;;;;;5030671;28;4947;-60
2022/11/21 10:56:06;;;;;;;;;;;;;;;;;;5030427;28;4939;-60
2022/11/21 10:58:35;;;;;;;;;;;;;;;;;;5024520;28;5023;-61
2022/11/21 11:01:00;;;;;;;;;;;;;;;;;;5030854;28;1914;-59
2022/11/21 11:03:25;;;;;;;;;;;;;;;;;;5022579;28;5134;-60
2022/11/21 11:05:56;;;;;;;;;;;;;;;;;;5009852;28;5071;-60
2022/11/21 11:08:21;;;;;;;;;;;;;;;;;;5016335;28;4989;-61
2022/11/21 11:11:05;;;;;;;;;;;;;;;;;;5029761;28;4978;-60
2022/11/21 11:13:34;;;;;;;;;;;;;;;;;;5045331;28;5051;-60
2022/11/21 11:16:04;;;;;;;;;;;;;;;;;;5027460;28;4639;-59
2022/11/21 11:18:30;;;;;;;;;;;;;;;;;;5016006;28;5067;-58
2022/11/21 11:21:08;;;;;;;;;;;;;;;;;;5029112;28;4805;-60
2022/11/21 11:23:33;;;;;;;;;;;;;;;;;;5010393;28;4937;-58
2022/11/21 11:25:58;;;;;;;;;;;;;;;;;;5041679;28;5138;-59
2022/11/21 11:28:24;;;;;;;;;;;;;;;;;;5017642;28;5208;-60
2022/11/21 11:30:50;;;;;;;;;;;;;;;;;;5014137;28;2299;-61
2022/11/21 11:33:34;;;;;;;;;;;;;;;;;;5029215;28;4484;-63
2022/11/21 11:36:12;;;;;;;;;;;;;;;;;;5032450;28;5070;-62
2022/11/21 11:38:38;;;;;;;;;;;;;;;;;;5028685;28;5031;-60
2022/11/21 11:41:29;;;;;;;;;;;;;;;;;;5028797;28;5153;-60
2022/11/21 11:52:28;;;;;;;;;;;;;;;;;;5039508;28;4601;-60
2022/11/21 11:54:58;;;;;;;;;;;;;;;;;;5028462;28;1912;-60
2022/11/21 11:57:23;;;;;;;;;;;;;;;;;;5028683;28;5214;-58
2022/11/21 11:59:49;;;;;;;;;;;;;;;;;;5015796;28;5086;-59
2022/11/21 12:02:22;;;;;;;;;;;;;;;;;;5009329;28;4522;-60
2022/11/21 12:04:49;;;;;;;;;;;;;;;;;;5026524;28;5309;-61
2022/11/21 12:07:16;;;;;;;;;;;;;;;;;;5029396;28;1246;-61
2022/11/21 12:09:55;;;;;;;;;;;;;;;;;;5024911;28;4925;-58
2022/11/21 12:12:29;;;;;;;;;;;;;;;;;;5024990;28;4634;-61
2022/11/21 12:18:03;;;;;;;;;;;;;;;;;;5019941;28;5106;-60
2022/11/21 12:20:33;;;;;;;;;;;;;;;;;;5023563;28;4461;-61
2022/11/21 12:22:58;;;;;;;;;;;;;;;;;;5021216;28;4458;-60
2022/11/21 12:25:26;;;;;;;;;;;;;;;;;;5025924;28;5055;-60
2022/11/21 12:27:51;;;;;;;;;;;;;;;;;;5043647;28;2068;-60
2022/11/21 12:30:19;;;;;;;;;;;;;;;;;;5025223;28;5086;-61
2022/11/21 12:33:01;;;;;;;;;;;;;;;;;;5043509;28;5051;-62
2022/11/21 12:35:35;;;;;;;;;;;;;;;;;;5040772;28;4731;-61
2022/11/21 12:38:19;;;;;;;;;;;;;;;;;;5028482;28;5109;-61
2022/11/21 12:43:48;;;;;;;;;;;;;;;;;;5028352;28;5131;-61
2022/11/21 12:46:18;;;;;;;;;;;;;;;;;;5022823;28;2503;-59
2022/11/21 12:54:32;;;;;;;;;;;;;;;;;;5026233;28;5145;-62
2022/11/21 12:57:01;;;;;;;;;;;;;;;;;;5026876;28;4446;-61
2022/11/21 12:59:26;;;;;;;;;;;;;;;;;;5023816;28;5149;-60
2022/11/21 13:01:51;;;;;;;;;;;;;;;;;;5047288;28;5247;-63
2022/11/21 13:04:17;;;;;;;;;;;;;;;;;;5035480;28;1539;-61
2022/11/21 13:06:42;;;;;;;;;;;;;;;;;;5043493;28;5059;-62
2022/11/21 13:09:09;;;;;;;;;;;;;;;;;;5037443;28;5483;-63
2022/11/21 13:12:13;;;;;;;;;;;;;;;;;;5021104;28;5101;-61
2022/11/21 13:14:31;;;;;;;;;;;;;;;;;;5026366;28;5001;-61
2022/11/21 13:16:59;;;;;;;;;;;;;;;;;;5027993;28;4736;-63
2022/11/21 13:19:43;;;;;;;;;;;;;;;;;;5026880;28;4650;-58
2022/11/21 13:22:27;;;;;;;;;;;;;;;;;;5020289;28;2118;-60
2022/11/21 13:24:53;;;;;;;;;;;;;;;;;;5023931;28;4964;-60
2022/11/21 13:27:34;;;;;;;;;;;;;;;;;;5026564;28;4846;-64
2022/11/21 13:30:06;;;;;;;;;;;;;;;;;;5021287;28;4517;-61
2022/11/21 13:32:50;;;;;;;;;;;;;;;;;;5023331;28;5163;-60
2022/11/21 13:35:18;;;;;;;;;;;;;;;;;;5026260;28;4705;-63
2022/11/21 13:38:02;;;;;;;;;;;;;;;;;;5027846;28;4873;-63
2022/11/21 13:40:31;;;;;;;;;;;;;;;;;;5025810;28;5099;-63
2022/11/21 13:43:11;;;;;;;;;;;;;;;;;;5028470;28;1098;-61
2022/11/21 13:45:36;;;;;;;;;;;;;;;;;;5027467;28;4925;-59
2022/11/21 13:48:20;;;;;;;;;;;;;;;;;;5035077;28;5062;-60
2022/11/21 13:50:48;;;;;;;;;;;;;;;;;;5030281;28;5060;-60
2022/11/21 13:53:13;;;;;;;;;;;;;;;;;;5011547;28;5095;-64
2022/11/21 13:55:54;;;;;;;;;;;;;;;;;;5007727;28;5002;-63
2022/11/21 13:58:19;;;;;;;;;;;;;;;;;;5007967;28;5046;-62
2022/11/21 14:01:03;;;;;;;;;;;;;;;;;;5024400;28;2595;-63
2022/11/21 14:03:28;;;;;;;;;;;;;;;;;;5031333;28;5002;-61
2022/11/21 14:05:53;;;;;;;;;;;;;;;;;;5020509;28;5020;-58
2022/11/21 14:08:22;;;;;;;;;;;;;;;;;;5022651;28;4786;-62
2022/11/21 14:10:49;;;;;;;;;;;;;;;;;;5028439;28;5070;-59
2022/11/21 14:13:34;;;;;;;;;;;;;;;;;;5020722;28;1403;-62
2022/11/21 14:15:59;;;;;;;;;;;;;;;;;;5014641;28;5683;-60
2022/11/21 14:18:25;;;;;;;;;;;;;;;;;;5029717;28;4995;-61
2022/11/21 14:20:56;;;;;;;;;;;;;;;;;;5045685;28;5062;-60
2022/11/21 14:23:21;;;;;;;;;;;;;;;;;;5037782;28;4522;-59
2022/11/21 14:25:50;;;;;;;;;;;;;;;;;;5030896;28;4493;-61
2022/11/21 14:28:24;;;;;;;;;;;;;;;;;;5026266;28;1926;-59
2022/11/21 14:30:54;;;;;;;;;;;;;;;;;;5029607;28;5067;-59
2022/11/21 14:33:26;;;;;;;;;;;;;;;;;;5030670;28;5130;-61
2022/11/21 14:35:55;;;;;;;;;;;;;;;;;;5020918;28;5520;-62
2022/11/21 14:38:20;;;;;;;;;;;;;;;;;;5029033;28;5038;-58
2022/11/21 14:40:45;;;;;;;;;;;;;;;;;;5044124;28;6008;-63
2022/11/21 14:43:40;;;;;;;;;;;;;;;;;;5028821;28;1413;-62
2022/11/21 14:46:12;;;;;;;;;;;;;;;;;;5013343;28;5181;-62
2022/11/21 14:48:37;;;;;;;;;;;;;;;;;;5018605;28;4952;-61
2022/11/21 14:51:03;;;;;;;;;;;;;;;;;;5014087;28;4505;-59
2022/11/21 14:53:28;;;;;;;;;;;;;;;;;;5019048;28;5096;-62
2022/11/21 14:55:53;;;;;;;;;;;;;;;;;;5030278;28;5664;-62
2022/11/21 14:58:19;;;;;;;;;;;;;;;;;;5022423;28;5049;-62
2022/11/21 15:01:00;;;;;;;;;;;;;;;;;;5026777;28;2046;-61
2022/11/21 15:03:25;;;;;;;;;;;;;;;;;;5029178;28;4846;-62
2022/11/21 15:05:57;;;;;;;;;;;;;;;;;;5012089;28;5156;-60
2022/11/21 15:08:22;;;;;;;;;;;;;;;;;;5007415;28;4638;-61
2022/11/21 15:10:48;;;;;;;;;;;;;;;;;;5008433;28;5101;-60
2022/11/21 15:13:14;;;;;;;;;;;;;;;;;;4988353;28;2074;-61
2022/11/21 15:15:41;;;;;;;;;;;;;;;;;;4997514;28;4638;-60
2022/11/21 15:18:10;;;;;;;;;;;;;;;;;;5011695;28;4643;-62
2022/11/21 15:20:36;;;;;;;;;;;;;;;;;;4999962;28;5144;-60
2022/11/21 15:23:01;;;;;;;;;;;;;;;;;;5014230;28;5038;-61
2022/11/21 15:25:27;;;;;;;;;;;;;;;;;;4996287;28;4575;-61
2022/11/21 15:27:52;;;;;;;;;;;;;;;;;;5018167;28;2579;-61
2022/11/21 15:30:18;;;;;;;;;;;;;;;;;;5002584;28;5091;-61
2022/11/21 15:33:00;;;;;;;;;;;;;;;;;;5000432;28;4701;-61
2022/11/21 15:35:35;;;;;;;;;;;;;;;;;;5005296;28;5102;-61
2022/11/21 15:38:00;;;;;;;;;;;;;;;;;;5001691;28;4545;-61
2022/11/21 15:40:25;;;;;;;;;;;;;;;;;;5005546;28;5057;-60
2022/11/21 15:42:51;;;;;;;;;;;;;;;;;;5009837;28;971;-61
2022/11/21 15:45:16;;;;;;;;;;;;;;;;;;5006259;28;4753;-61
2022/11/21 15:47:41;;;;;;;;;;;;;;;;;;5011440;28;5078;-61
2022/11/21 15:50:06;;;;;;;;;;;;;;;;;;5012679;28;5094;-61
2022/11/21 15:52:42;;;;;;;;;;;;;;;;;;5015063;28;5132;-59
2022/11/21 15:55:39;;;;;;;;;;;;;;;;;;5019305;28;1155;-61
2022/11/21 15:58:05;;;;;;;;;;;;;;;;;;5005734;28;4891;-61
2022/11/21 16:00:30;;;;;;;;;;;;;;;;;;5028995;28;5064;-60
2022/11/21 16:02:55;;;;;;;;;;;;;;;;;;5024294;28;5303;-60
2022/11/21 16:05:20;;;;;;;;;;;;;;;;;;5028504;28;5188;-62
2022/11/21 16:07:46;;;;;;;;;;;;;;;;;;5027214;28;5115;-63
2022/11/21 16:10:11;;;;;;;;;;;;;;;;;;5016972;28;2288;-63
2022/11/21 16:12:36;;;;;;;;;;;;;;;;;;5017583;28;5139;-64
2022/11/21 16:15:02;;;;;;;;;;;;;;;;;;5017884;28;4920;-63
2022/11/21 16:17:27;;;;;;;;;;;;;;;;;;5022593;28;5115;-63
2022/11/21 16:19:52;;;;;;;;;;;;;;;;;;5024123;28;5083;-63
2022/11/21 16:22:17;;;;;;;;;;;;;;;;;;5019270;28;4778;-64
2022/11/21 16:24:43;;;;;;;;;;;;;;;;;;5023254;28;2119;-65
2022/11/21 16:27:08;;;;;;;;;;;;;;;;;;5026615;28;5210;-63
2022/11/21 16:29:33;;;;;;;;;;;;;;;;;;5025053;28;4428;-63
2022/11/21 16:31:58;;;;;;;;;;;;;;;;;;5038355;28;5029;-65
2022/11/21 16:34:25;;;;;;;;;;;;;;;;;;5024211;28;4536;-62
2022/11/21 16:36:50;;;;;;;;;;;;;;;;;;5013125;28;1112;-62
2022/11/21 16:39:16;;;;;;;;;;;;;;;;;;5009898;28;5536;-63
2022/11/21 16:41:43;;;;;;;;;;;;;;;;;;5001917;28;4936;-67
2022/11/21 16:44:12;;;;;;;;;;;;;;;;;;5001614;28;5075;-64
2022/11/21 16:46:40;;;;;;;;;;;;;;;;;;5006261;28;4946;-67
2022/11/21 16:49:05;;;;;;;;;;;;;;;;;;5016671;28;2606;-66
2022/11/21 16:51:30;;;;;;;;;;;;;;;;;;5019331;28;4671;-65
2022/11/21 16:53:56;;;;;;;;;;;;;;;;;;5010297;28;4690;-64
2022/11/21 16:56:21;;;;;;;;;;;;;;;;;;5019680;28;4504;-64
2022/11/21 16:58:46;;;;;;;;;;;;;;;;;;5007292;28;5090;-65
2022/11/21 17:01:18;;;;;;;;;;;;;;;;;;5007978;28;2270;-63
2022/11/21 17:03:44;;;;;;;;;;;;;;;;;;5010098;28;5112;-66
2022/11/21 17:06:09;;;;;;;;;;;;;;;;;;5008174;28;4994;-65
2022/11/21 17:08:35;;;;;;;;;;;;;;;;;;5017478;28;5058;-66
2022/11/21 17:11:18;;;;;;;;;;;;;;;;;;5023646;28;5051;-64
2022/11/21 17:13:44;;;;;;;;;;;;;;;;;;5015946;28;5003;-66
2022/11/21 17:16:10;;;;;;;;;;;;;;;;;;5017933;28;4527;-65
2022/11/21 17:18:35;;;;;;;;;;;;;;;;;;5027131;28;4982;-65
2022/11/21 17:21:07;;;;;;;;;;;;;;;;;;5020263;28;6207;-66
2022/11/21 17:23:33;;;;;;;;;;;;;;;;;;5015453;28;5314;-63
2022/11/21 17:26:05;;;;;;;;;;;;;;;;;;5028196;28;5118;-65
2022/11/21 17:28:31;;;;;;;;;;;;;;;;;;5028143;28;5061;-65
2022/11/21 17:30:56;;;;;;;;;;;;;;;;;;5028468;28;1068;-64
2022/11/21 17:33:21;;;;;;;;;;;;;;;;;;5018835;28;4985;-66
2022/11/21 17:35:46;;;;;;;;;;;;;;;;;;5019130;28;4507;-65
2022/11/21 17:38:12;;;;;;;;;;;;;;;;;;5029896;28;4593;-66
2022/11/21 17:40:37;;;;;;;;;;;;;;;;;;5017608;28;5073;-65
2022/11/21 17:43:03;;;;;;;;;;;;;;;;;;5033021;28;2342;-65
2022/11/21 17:45:28;;;;;;;;;;;;;;;;;;5029145;28;4983;-63